sensor_id;sensor_type;location;lat;lon;timestamp;P1;durP1;ratioP1;P2;durP2;ratioP2
74223;SDS011;62585;49.706;18.216;2024-03-02T00:00:09;49.17;;;25.50;;
74223;SDS011;62585;49.706;18.216;2024-03-02T00:03:05;43.25;;;22.13;;
74223;SDS011;62585;49.706;18.216;2024-03-02T00:07:58;38.00;;;20.20;;
74223;SDS011;62585;49.706;18.216;2024-03-02T00:10:25;41.58;;;22.70;;
74223;SDS011;62585;49.706;18.216;2024-03-02T00:12:56;43.58;;;22.42;;
74223;SDS011;62585;49.706;18.216;2024-03-02T00:17:55;49.17;;;24.10;;
74223;SDS011;62585;49.706;18.216;2024-03-02T00:20:22;46.45;;;23.20;;
74223;SDS011;62585;49.706;18.216;2024-03-02T00:22:49;44.38;;;23.95;;
74223;SDS011;62585;49.706;18.216;2024-03-02T00:27:41;38.35;;;22.45;;
74223;SDS011;62585;49.706;18.216;2024-03-02T00:31:08;47.95;;;26.00;;
74223;SDS011;62585;49.706;18.216;2024-03-02T00:33:21;49.35;;;23.48;;
74223;SDS011;62585;49.706;18.216;2024-03-02T00:35:48;49.97;;;23.77;;
74223;SDS011;62585;49.706;18.216;2024-03-02T00:38:15;52.28;;;27.08;;
74223;SDS011;62585;49.706;18.216;2024-03-02T00:40:41;49.15;;;25.27;;
74223;SDS011;62585;49.706;18.216;2024-03-02T00:43:35;41.00;;;22.55;;
74223;SDS011;62585;49.706;18.216;2024-03-02T00:46:08;48.78;;;25.60;;
74223;SDS011;62585;49.706;18.216;2024-03-02T00:48:34;50.97;;;26.38;;
74223;SDS011;62585;49.706;18.216;2024-03-02T00:51:03;54.17;;;26.52;;
74223;SDS011;62585;49.706;18.216;2024-03-02T00:53:32;54.42;;;27.85;;
74223;SDS011;62585;49.706;18.216;2024-03-02T00:55:58;53.92;;;27.08;;
74223;SDS011;62585;49.706;18.216;2024-03-02T00:58:25;49.88;;;26.05;;
74223;SDS011;62585;49.706;18.216;2024-03-02T01:00:50;49.70;;;26.23;;
74223;SDS011;62585;49.706;18.216;2024-03-02T01:03:16;69.50;;;28.10;;
74223;SDS011;62585;49.706;18.216;2024-03-02T01:05:42;76.07;;;29.58;;
74223;SDS011;62585;49.706;18.216;2024-03-02T01:08:11;122.28;;;33.25;;
74223;SDS011;62585;49.706;18.216;2024-03-02T01:10:37;69.70;;;30.88;;
74223;SDS011;62585;49.706;18.216;2024-03-02T01:13:03;128.63;;;33.17;;
74223;SDS011;62585;49.706;18.216;2024-03-02T01:15:29;82.03;;;31.38;;
74223;SDS011;62585;49.706;18.216;2024-03-02T01:17:54;67.18;;;30.77;;
74223;SDS011;62585;49.706;18.216;2024-03-02T01:20:20;92.28;;;31.08;;
74223;SDS011;62585;49.706;18.216;2024-03-02T01:22:47;82.85;;;30.08;;
74223;SDS011;62585;49.706;18.216;2024-03-02T01:25:12;101.55;;;31.52;;
74223;SDS011;62585;49.706;18.216;2024-03-02T01:27:38;77.32;;;29.60;;
74223;SDS011;62585;49.706;18.216;2024-03-02T01:30:04;79.15;;;31.30;;
74223;SDS011;62585;49.706;18.216;2024-03-02T01:32:31;80.38;;;29.10;;
74223;SDS011;62585;49.706;18.216;2024-03-02T01:34:57;57.75;;;26.45;;
74223;SDS011;62585;49.706;18.216;2024-03-02T01:37:22;73.93;;;29.88;;
74223;SDS011;62585;49.706;18.216;2024-03-02T01:39:48;76.43;;;28.98;;
74223;SDS011;62585;49.706;18.216;2024-03-02T01:42:14;59.65;;;29.02;;
74223;SDS011;62585;49.706;18.216;2024-03-02T01:44:40;60.80;;;28.13;;
74223;SDS011;62585;49.706;18.216;2024-03-02T01:47:05;53.50;;;26.75;;
74223;SDS011;62585;49.706;18.216;2024-03-02T01:49:32;52.58;;;26.33;;
74223;SDS011;62585;49.706;18.216;2024-03-02T01:51:59;57.80;;;25.85;;
74223;SDS011;62585;49.706;18.216;2024-03-02T01:54:25;53.60;;;27.80;;
74223;SDS011;62585;49.706;18.216;2024-03-02T01:56:50;61.45;;;27.23;;
74223;SDS011;62585;49.706;18.216;2024-03-02T01:59:16;73.25;;;27.23;;
74223;SDS011;62585;49.706;18.216;2024-03-02T02:01:42;53.60;;;26.88;;
74223;SDS011;62585;49.706;18.216;2024-03-02T02:04:08;76.80;;;28.30;;
74223;SDS011;62585;49.706;18.216;2024-03-02T02:06:34;54.17;;;26.88;;
74223;SDS011;62585;49.706;18.216;2024-03-02T02:09:00;67.78;;;28.25;;
74223;SDS011;62585;49.706;18.216;2024-03-02T02:14:01;76.93;;;28.58;;
74223;SDS011;62585;49.706;18.216;2024-03-02T02:16:27;65.35;;;28.42;;
74223;SDS011;62585;49.706;18.216;2024-03-02T02:18:52;64.28;;;27.13;;
74223;SDS011;62585;49.706;18.216;2024-03-02T02:21:22;72.97;;;32.15;;
74223;SDS011;62585;49.706;18.216;2024-03-02T02:23:48;55.67;;;29.77;;
74223;SDS011;62585;49.706;18.216;2024-03-02T02:26:14;57.15;;;28.08;;
74223;SDS011;62585;49.706;18.216;2024-03-02T02:28:39;84.25;;;33.67;;
74223;SDS011;62585;49.706;18.216;2024-03-02T02:31:15;58.03;;;29.15;;
74223;SDS011;62585;49.706;18.216;2024-03-02T02:33:41;63.63;;;29.02;;
74223;SDS011;62585;49.706;18.216;2024-03-02T02:36:07;53.63;;;28.33;;
74223;SDS011;62585;49.706;18.216;2024-03-02T02:41:03;57.10;;;28.08;;
74223;SDS011;62585;49.706;18.216;2024-03-02T02:43:29;56.50;;;27.63;;
74223;SDS011;62585;49.706;18.216;2024-03-02T02:45:54;54.55;;;28.20;;
74223;SDS011;62585;49.706;18.216;2024-03-02T02:48:20;55.80;;;27.90;;
74223;SDS011;62585;49.706;18.216;2024-03-02T02:50:46;54.03;;;27.55;;
74223;SDS011;62585;49.706;18.216;2024-03-02T02:53:12;52.50;;;28.65;;
74223;SDS011;62585;49.706;18.216;2024-03-02T02:55:39;42.55;;;23.25;;
74223;SDS011;62585;49.706;18.216;2024-03-02T02:58:09;50.17;;;25.27;;
74223;SDS011;62585;49.706;18.216;2024-03-02T03:00:35;53.00;;;27.23;;
74223;SDS011;62585;49.706;18.216;2024-03-02T03:03:01;55.13;;;27.10;;
74223;SDS011;62585;49.706;18.216;2024-03-02T03:05:27;48.20;;;25.30;;
74223;SDS011;62585;49.706;18.216;2024-03-02T03:07:53;44.25;;;24.77;;
74223;SDS011;62585;49.706;18.216;2024-03-02T03:10:19;45.50;;;26.20;;
74223;SDS011;62585;49.706;18.216;2024-03-02T03:12:47;48.78;;;26.63;;
74223;SDS011;62585;49.706;18.216;2024-03-02T03:15:13;46.67;;;27.85;;
74223;SDS011;62585;49.706;18.216;2024-03-02T03:17:39;46.53;;;26.27;;
74223;SDS011;62585;49.706;18.216;2024-03-02T03:20:05;48.05;;;26.30;;
74223;SDS011;62585;49.706;18.216;2024-03-02T03:22:35;81.00;;;27.08;;
74223;SDS011;62585;49.706;18.216;2024-03-02T03:25:01;51.55;;;26.52;;
74223;SDS011;62585;49.706;18.216;2024-03-02T03:27:28;67.18;;;28.13;;
74223;SDS011;62585;49.706;18.216;2024-03-02T03:29:54;85.25;;;26.27;;
74223;SDS011;62585;49.706;18.216;2024-03-02T03:32:20;80.30;;;27.77;;
74223;SDS011;62585;49.706;18.216;2024-03-02T03:34:46;63.92;;;26.52;;
74223;SDS011;62585;49.706;18.216;2024-03-02T03:37:13;82.97;;;30.02;;
74223;SDS011;62585;49.706;18.216;2024-03-02T03:39:39;73.07;;;30.50;;
74223;SDS011;62585;49.706;18.216;2024-03-02T03:42:04;94.40;;;28.33;;
74223;SDS011;62585;49.706;18.216;2024-03-02T03:44:30;96.63;;;28.65;;
74223;SDS011;62585;49.706;18.216;2024-03-02T03:46:56;61.03;;;26.83;;
74223;SDS011;62585;49.706;18.216;2024-03-02T03:49:22;89.82;;;30.13;;
74223;SDS011;62585;49.706;18.216;2024-03-02T03:51:47;104.65;;;28.90;;
74223;SDS011;62585;49.706;18.216;2024-03-02T03:54:13;62.58;;;29.08;;
74223;SDS011;62585;49.706;18.216;2024-03-02T03:56:39;60.75;;;25.90;;
74223;SDS011;62585;49.706;18.216;2024-03-02T03:59:05;52.25;;;24.05;;
74223;SDS011;62585;49.706;18.216;2024-03-02T04:01:30;66.07;;;25.35;;
74223;SDS011;62585;49.706;18.216;2024-03-02T04:03:59;69.53;;;25.73;;
74223;SDS011;62585;49.706;18.216;2024-03-02T04:06:27;62.15;;;25.25;;
74223;SDS011;62585;49.706;18.216;2024-03-02T04:08:53;54.55;;;25.15;;
74223;SDS011;62585;49.706;18.216;2024-03-02T04:11:18;63.53;;;23.92;;
74223;SDS011;62585;49.706;18.216;2024-03-02T04:13:44;43.30;;;23.73;;
74223;SDS011;62585;49.706;18.216;2024-03-02T04:16:10;51.45;;;25.42;;
74223;SDS011;62585;49.706;18.216;2024-03-02T04:18:36;38.05;;;22.80;;
74223;SDS011;62585;49.706;18.216;2024-03-02T04:21:01;48.47;;;23.08;;
74223;SDS011;62585;49.706;18.216;2024-03-02T04:23:27;45.55;;;22.65;;
74223;SDS011;62585;49.706;18.216;2024-03-02T04:25:53;50.60;;;25.27;;
74223;SDS011;62585;49.706;18.216;2024-03-02T04:28:19;54.47;;;23.75;;
74223;SDS011;62585;49.706;18.216;2024-03-02T04:30:44;50.90;;;23.27;;
74223;SDS011;62585;49.706;18.216;2024-03-02T04:33:10;49.63;;;23.67;;
74223;SDS011;62585;49.706;18.216;2024-03-02T04:35:36;48.78;;;25.88;;
74223;SDS011;62585;49.706;18.216;2024-03-02T04:38:02;57.55;;;25.02;;
74223;SDS011;62585;49.706;18.216;2024-03-02T04:40:28;51.17;;;24.98;;
74223;SDS011;62585;49.706;18.216;2024-03-02T04:42:54;48.50;;;25.75;;
74223;SDS011;62585;49.706;18.216;2024-03-02T04:45:20;46.15;;;24.30;;
74223;SDS011;62585;49.706;18.216;2024-03-02T04:47:45;40.63;;;25.17;;
74223;SDS011;62585;49.706;18.216;2024-03-02T04:50:11;59.45;;;26.83;;
74223;SDS011;62585;49.706;18.216;2024-03-02T04:52:37;55.55;;;25.73;;
74223;SDS011;62585;49.706;18.216;2024-03-02T04:55:03;72.07;;;25.58;;
74223;SDS011;62585;49.706;18.216;2024-03-02T04:57:35;61.22;;;26.30;;
74223;SDS011;62585;49.706;18.216;2024-03-02T05:00:01;47.53;;;26.02;;
74223;SDS011;62585;49.706;18.216;2024-03-02T05:02:27;88.82;;;28.92;;
74223;SDS011;62585;49.706;18.216;2024-03-02T05:04:53;49.35;;;26.23;;
74223;SDS011;62585;49.706;18.216;2024-03-02T05:07:18;60.95;;;26.23;;
74223;SDS011;62585;49.706;18.216;2024-03-02T05:09:44;54.03;;;25.05;;
74223;SDS011;62585;49.706;18.216;2024-03-02T05:12:10;47.72;;;26.42;;
74223;SDS011;62585;49.706;18.216;2024-03-02T05:14:57;61.03;;;26.17;;
74223;SDS011;62585;49.706;18.216;2024-03-02T05:17:23;73.93;;;26.90;;
74223;SDS011;62585;49.706;18.216;2024-03-02T05:19:49;69.43;;;27.58;;
74223;SDS011;62585;49.706;18.216;2024-03-02T05:22:14;128.63;;;29.85;;
74223;SDS011;62585;49.706;18.216;2024-03-02T05:24:40;133.13;;;29.55;;
74223;SDS011;62585;49.706;18.216;2024-03-02T05:27:06;104.55;;;30.50;;
74223;SDS011;62585;49.706;18.216;2024-03-02T05:29:32;90.78;;;27.95;;
74223;SDS011;62585;49.706;18.216;2024-03-02T05:31:58;89.03;;;25.23;;
74223;SDS011;62585;49.706;18.216;2024-03-02T05:34:24;75.93;;;27.13;;
74223;SDS011;62585;49.706;18.216;2024-03-02T05:36:49;76.35;;;25.65;;
74223;SDS011;62585;49.706;18.216;2024-03-02T05:39:15;61.35;;;30.05;;
74223;SDS011;62585;49.706;18.216;2024-03-02T05:41:41;82.43;;;28.05;;
74223;SDS011;62585;49.706;18.216;2024-03-02T05:44:07;68.70;;;25.45;;
74223;SDS011;62585;49.706;18.216;2024-03-02T05:46:32;72.55;;;26.65;;
74223;SDS011;62585;49.706;18.216;2024-03-02T05:48:59;58.47;;;27.42;;
74223;SDS011;62585;49.706;18.216;2024-03-02T05:51:25;52.53;;;27.90;;
74223;SDS011;62585;49.706;18.216;2024-03-02T05:53:51;61.35;;;27.25;;
74223;SDS011;62585;49.706;18.216;2024-03-02T05:56:17;63.25;;;26.52;;
74223;SDS011;62585;49.706;18.216;2024-03-02T05:58:42;53.88;;;24.98;;
74223;SDS011;62585;49.706;18.216;2024-03-02T06:01:27;48.05;;;24.83;;
74223;SDS011;62585;49.706;18.216;2024-03-02T06:03:56;58.50;;;27.98;;
74223;SDS011;62585;49.706;18.216;2024-03-02T06:06:22;48.47;;;26.17;;
74223;SDS011;62585;49.706;18.216;2024-03-02T06:08:48;54.38;;;25.45;;
74223;SDS011;62585;49.706;18.216;2024-03-02T06:11:14;51.60;;;25.83;;
74223;SDS011;62585;49.706;18.216;2024-03-02T06:13:40;48.75;;;27.58;;
74223;SDS011;62585;49.706;18.216;2024-03-02T06:16:05;54.42;;;25.90;;
74223;SDS011;62585;49.706;18.216;2024-03-02T06:18:32;51.80;;;23.98;;
74223;SDS011;62585;49.706;18.216;2024-03-02T06:20:57;56.15;;;26.50;;
74223;SDS011;62585;49.706;18.216;2024-03-02T06:23:23;54.33;;;24.42;;
74223;SDS011;62585;49.706;18.216;2024-03-02T06:25:48;49.67;;;25.70;;
74223;SDS011;62585;49.706;18.216;2024-03-02T06:28:14;52.75;;;28.17;;
74223;SDS011;62585;49.706;18.216;2024-03-02T06:30:41;52.60;;;24.30;;
74223;SDS011;62585;49.706;18.216;2024-03-02T06:33:08;66.15;;;28.60;;
74223;SDS011;62585;49.706;18.216;2024-03-02T06:35:33;57.42;;;26.83;;
74223;SDS011;62585;49.706;18.216;2024-03-02T06:38:00;52.45;;;29.50;;
74223;SDS011;62585;49.706;18.216;2024-03-02T06:40:26;58.38;;;27.17;;
74223;SDS011;62585;49.706;18.216;2024-03-02T06:42:52;61.33;;;25.13;;
74223;SDS011;62585;49.706;18.216;2024-03-02T06:45:18;62.60;;;26.05;;
74223;SDS011;62585;49.706;18.216;2024-03-02T06:47:44;57.85;;;26.27;;
74223;SDS011;62585;49.706;18.216;2024-03-02T06:50:10;52.78;;;24.55;;
74223;SDS011;62585;49.706;18.216;2024-03-02T06:52:36;55.67;;;26.38;;
74223;SDS011;62585;49.706;18.216;2024-03-02T06:55:02;49.90;;;24.98;;
74223;SDS011;62585;49.706;18.216;2024-03-02T06:57:29;49.10;;;26.63;;
74223;SDS011;62585;49.706;18.216;2024-03-02T06:59:55;49.40;;;26.02;;
74223;SDS011;62585;49.706;18.216;2024-03-02T07:02:27;58.20;;;24.88;;
74223;SDS011;62585;49.706;18.216;2024-03-02T07:04:53;52.72;;;25.00;;
74223;SDS011;62585;49.706;18.216;2024-03-02T07:07:20;54.33;;;26.05;;
74223;SDS011;62585;49.706;18.216;2024-03-02T07:09:46;59.40;;;25.98;;
74223;SDS011;62585;49.706;18.216;2024-03-02T07:12:12;61.70;;;25.52;;
74223;SDS011;62585;49.706;18.216;2024-03-02T07:14:37;59.90;;;27.88;;
74223;SDS011;62585;49.706;18.216;2024-03-02T07:17:22;51.15;;;25.40;;
74223;SDS011;62585;49.706;18.216;2024-03-02T07:19:47;53.33;;;26.52;;
74223;SDS011;62585;49.706;18.216;2024-03-02T07:22:13;78.30;;;27.95;;
74223;SDS011;62585;49.706;18.216;2024-03-02T07:24:39;62.13;;;25.75;;
74223;SDS011;62585;49.706;18.216;2024-03-02T07:27:09;55.03;;;26.45;;
74223;SDS011;62585;49.706;18.216;2024-03-02T07:29:35;49.78;;;24.85;;
74223;SDS011;62585;49.706;18.216;2024-03-02T07:32:01;42.20;;;23.73;;
74223;SDS011;62585;49.706;18.216;2024-03-02T07:34:27;40.08;;;24.40;;
74223;SDS011;62585;49.706;18.216;2024-03-02T07:36:53;42.40;;;24.40;;
74223;SDS011;62585;49.706;18.216;2024-03-02T07:39:18;52.15;;;26.33;;
74223;SDS011;62585;49.706;18.216;2024-03-02T07:41:45;49.67;;;24.05;;
74223;SDS011;62585;49.706;18.216;2024-03-02T07:44:11;43.90;;;23.98;;
74223;SDS011;62585;49.706;18.216;2024-03-02T07:46:42;46.53;;;25.27;;
74223;SDS011;62585;49.706;18.216;2024-03-02T07:49:09;44.53;;;25.35;;
74223;SDS011;62585;49.706;18.216;2024-03-02T07:51:35;47.10;;;24.13;;
74223;SDS011;62585;49.706;18.216;2024-03-02T07:54:01;44.95;;;25.90;;
74223;SDS011;62585;49.706;18.216;2024-03-02T07:56:27;46.85;;;24.92;;
74223;SDS011;62585;49.706;18.216;2024-03-02T07:58:53;47.00;;;25.50;;
74223;SDS011;62585;49.706;18.216;2024-03-02T08:01:19;45.08;;;25.30;;
74223;SDS011;62585;49.706;18.216;2024-03-02T08:03:45;52.35;;;26.45;;
74223;SDS011;62585;49.706;18.216;2024-03-02T08:06:16;49.33;;;26.25;;
74223;SDS011;62585;49.706;18.216;2024-03-02T08:08:42;58.22;;;27.55;;
74223;SDS011;62585;49.706;18.216;2024-03-02T08:11:08;57.80;;;28.30;;
74223;SDS011;62585;49.706;18.216;2024-03-02T08:13:34;68.90;;;29.88;;
74223;SDS011;62585;49.706;18.216;2024-03-02T08:16:00;61.35;;;28.90;;
74223;SDS011;62585;49.706;18.216;2024-03-02T08:18:28;65.32;;;29.20;;
74223;SDS011;62585;49.706;18.216;2024-03-02T08:20:54;58.92;;;28.95;;
74223;SDS011;62585;49.706;18.216;2024-03-02T08:23:20;62.03;;;28.33;;
74223;SDS011;62585;49.706;18.216;2024-03-02T08:25:46;58.25;;;26.60;;
74223;SDS011;62585;49.706;18.216;2024-03-02T08:28:12;66.32;;;29.50;;
74223;SDS011;62585;49.706;18.216;2024-03-02T08:30:38;60.38;;;28.63;;
74223;SDS011;62585;49.706;18.216;2024-03-02T08:33:03;54.45;;;27.85;;
74223;SDS011;62585;49.706;18.216;2024-03-02T08:35:31;61.25;;;28.08;;
74223;SDS011;62585;49.706;18.216;2024-03-02T08:38:01;61.38;;;27.20;;
74223;SDS011;62585;49.706;18.216;2024-03-02T08:40:28;54.67;;;27.05;;
74223;SDS011;62585;49.706;18.216;2024-03-02T08:42:54;55.25;;;28.50;;
74223;SDS011;62585;49.706;18.216;2024-03-02T08:45:20;51.50;;;28.15;;
74223;SDS011;62585;49.706;18.216;2024-03-02T08:47:46;57.53;;;28.98;;
74223;SDS011;62585;49.706;18.216;2024-03-02T08:50:12;60.40;;;25.25;;
74223;SDS011;62585;49.706;18.216;2024-03-02T08:52:38;57.63;;;28.65;;
74223;SDS011;62585;49.706;18.216;2024-03-02T08:55:04;59.03;;;27.35;;
74223;SDS011;62585;49.706;18.216;2024-03-02T08:57:30;51.25;;;25.80;;
74223;SDS011;62585;49.706;18.216;2024-03-02T08:59:57;55.13;;;27.52;;
74223;SDS011;62585;49.706;18.216;2024-03-02T09:02:22;60.20;;;27.65;;
74223;SDS011;62585;49.706;18.216;2024-03-02T09:04:48;55.00;;;29.23;;
74223;SDS011;62585;49.706;18.216;2024-03-02T09:07:14;56.67;;;28.55;;
74223;SDS011;62585;49.706;18.216;2024-03-02T09:09:40;63.17;;;33.53;;
74223;SDS011;62585;49.706;18.216;2024-03-02T09:12:06;56.22;;;29.77;;
74223;SDS011;62585;49.706;18.216;2024-03-02T09:14:32;65.63;;;32.28;;
74223;SDS011;62585;49.706;18.216;2024-03-02T09:16:59;57.00;;;30.52;;
74223;SDS011;62585;49.706;18.216;2024-03-02T09:19:25;70.07;;;36.13;;
74223;SDS011;62585;49.706;18.216;2024-03-02T09:21:50;70.00;;;35.67;;
74223;SDS011;62585;49.706;18.216;2024-03-02T09:24:16;62.15;;;35.38;;
74223;SDS011;62585;49.706;18.216;2024-03-02T09:26:42;71.47;;;34.95;;
74223;SDS011;62585;49.706;18.216;2024-03-02T09:29:08;62.78;;;32.63;;
74223;SDS011;62585;49.706;18.216;2024-03-02T09:31:38;64.35;;;32.22;;
74223;SDS011;62585;49.706;18.216;2024-03-02T09:34:05;69.65;;;32.25;;
74223;SDS011;62585;49.706;18.216;2024-03-02T09:36:31;68.32;;;35.65;;
74223;SDS011;62585;49.706;18.216;2024-03-02T09:38:56;59.15;;;32.30;;
74223;SDS011;62585;49.706;18.216;2024-03-02T09:41:22;69.65;;;33.70;;
74223;SDS011;62585;49.706;18.216;2024-03-02T09:43:48;61.92;;;31.95;;
74223;SDS011;62585;49.706;18.216;2024-03-02T09:46:14;60.25;;;31.17;;
74223;SDS011;62585;49.706;18.216;2024-03-02T09:48:41;57.08;;;30.00;;
74223;SDS011;62585;49.706;18.216;2024-03-02T09:51:06;59.80;;;30.77;;
74223;SDS011;62585;49.706;18.216;2024-03-02T09:56:00;59.92;;;28.45;;
74223;SDS011;62585;49.706;18.216;2024-03-02T09:58:26;56.03;;;30.05;;
74223;SDS011;62585;49.706;18.216;2024-03-02T10:00:51;57.00;;;31.77;;
74223;SDS011;62585;49.706;18.216;2024-03-02T10:03:18;57.05;;;29.75;;
74223;SDS011;62585;49.706;18.216;2024-03-02T10:05:44;56.10;;;31.02;;
74223;SDS011;62585;49.706;18.216;2024-03-02T10:08:10;59.28;;;29.90;;
74223;SDS011;62585;49.706;18.216;2024-03-02T10:10:40;58.38;;;29.58;;
74223;SDS011;62585;49.706;18.216;2024-03-02T10:13:07;61.25;;;32.40;;
74223;SDS011;62585;49.706;18.216;2024-03-02T10:15:34;66.40;;;31.73;;
74223;SDS011;62585;49.706;18.216;2024-03-02T10:18:03;64.47;;;34.08;;
74223;SDS011;62585;49.706;18.216;2024-03-02T10:20:29;65.25;;;33.97;;
74223;SDS011;62585;49.706;18.216;2024-03-02T10:22:56;51.25;;;30.45;;
74223;SDS011;62585;49.706;18.216;2024-03-02T10:28:01;62.20;;;31.13;;
74223;SDS011;62585;49.706;18.216;2024-03-02T10:30:27;58.15;;;29.42;;
74223;SDS011;62585;49.706;18.216;2024-03-02T10:32:54;58.28;;;31.33;;
74223;SDS011;62585;49.706;18.216;2024-03-02T10:35:21;59.83;;;31.85;;
74223;SDS011;62585;49.706;18.216;2024-03-02T10:37:54;63.83;;;32.45;;
74223;SDS011;62585;49.706;18.216;2024-03-02T10:40:23;60.65;;;31.00;;
74223;SDS011;62585;49.706;18.216;2024-03-02T10:42:52;60.03;;;33.13;;
74223;SDS011;62585;49.706;18.216;2024-03-02T10:45:19;55.47;;;30.77;;
74223;SDS011;62585;49.706;18.216;2024-03-02T10:47:49;56.20;;;31.73;;
74223;SDS011;62585;49.706;18.216;2024-03-02T10:50:15;56.60;;;32.22;;
74223;SDS011;62585;49.706;18.216;2024-03-02T10:52:41;56.08;;;31.02;;
74223;SDS011;62585;49.706;18.216;2024-03-02T10:55:08;51.75;;;27.58;;
74223;SDS011;62585;49.706;18.216;2024-03-02T11:00:08;50.00;;;26.10;;
74223;SDS011;62585;49.706;18.216;2024-03-02T11:02:41;46.70;;;23.70;;
74223;SDS011;62585;49.706;18.216;2024-03-02T11:05:13;41.97;;;23.55;;
74223;SDS011;62585;49.706;18.216;2024-03-02T11:08:02;43.35;;;24.13;;
74223;SDS011;62585;49.706;18.216;2024-03-02T11:10:36;39.40;;;20.90;;
74223;SDS011;62585;49.706;18.216;2024-03-02T11:13:08;41.38;;;20.02;;
74223;SDS011;62585;49.706;18.216;2024-03-02T11:15:35;36.38;;;21.35;;
74223;SDS011;62585;49.706;18.216;2024-03-02T11:18:04;40.60;;;21.10;;
74223;SDS011;62585;49.706;18.216;2024-03-02T11:20:37;43.30;;;22.23;;
74223;SDS011;62585;49.706;18.216;2024-03-02T11:23:05;38.58;;;22.23;;
74223;SDS011;62585;49.706;18.216;2024-03-02T11:25:34;41.90;;;23.13;;
74223;SDS011;62585;49.706;18.216;2024-03-02T11:28:01;41.63;;;23.27;;
74223;SDS011;62585;49.706;18.216;2024-03-02T11:32:57;44.45;;;21.75;;
74223;SDS011;62585;49.706;18.216;2024-03-02T11:35:27;44.63;;;21.45;;
74223;SDS011;62585;49.706;18.216;2024-03-02T11:37:56;38.10;;;21.95;;
74223;SDS011;62585;49.706;18.216;2024-03-02T11:40:27;39.92;;;19.33;;
74223;SDS011;62585;49.706;18.216;2024-03-02T11:42:53;30.35;;;15.35;;
74223;SDS011;62585;49.706;18.216;2024-03-02T11:45:22;30.60;;;16.88;;
74223;SDS011;62585;49.706;18.216;2024-03-02T11:47:50;21.60;;;11.38;;
74223;SDS011;62585;49.706;18.216;2024-03-02T11:50:29;23.40;;;12.73;;
74223;SDS011;62585;49.706;18.216;2024-03-02T11:53:05;17.42;;;10.82;;
74223;SDS011;62585;49.706;18.216;2024-03-02T11:55:36;20.83;;;11.55;;
74223;SDS011;62585;49.706;18.216;2024-03-02T11:58:05;16.27;;;11.20;;
74223;SDS011;62585;49.706;18.216;2024-03-02T12:00:32;17.90;;;10.13;;
74223;SDS011;62585;49.706;18.216;2024-03-02T12:03:02;18.42;;;10.93;;
74223;SDS011;62585;49.706;18.216;2024-03-02T12:05:30;14.23;;;8.68;;
74223;SDS011;62585;49.706;18.216;2024-03-02T12:08:00;12.38;;;6.95;;
74223;SDS011;62585;49.706;18.216;2024-03-02T12:10:27;14.45;;;8.32;;
74223;SDS011;62585;49.706;18.216;2024-03-02T12:12:57;10.23;;;6.70;;
74223;SDS011;62585;49.706;18.216;2024-03-02T12:15:27;12.48;;;6.55;;
74223;SDS011;62585;49.706;18.216;2024-03-02T12:17:56;11.25;;;7.35;;
74223;SDS011;62585;49.706;18.216;2024-03-02T12:20:23;11.32;;;6.25;;
74223;SDS011;62585;49.706;18.216;2024-03-02T12:22:54;12.00;;;6.65;;
74223;SDS011;62585;49.706;18.216;2024-03-02T12:25:23;9.60;;;6.47;;
74223;SDS011;62585;49.706;18.216;2024-03-02T12:27:52;9.43;;;6.68;;
74223;SDS011;62585;49.706;18.216;2024-03-02T12:30:23;12.77;;;7.43;;
74223;SDS011;62585;49.706;18.216;2024-03-02T12:32:49;11.18;;;6.95;;
74223;SDS011;62585;49.706;18.216;2024-03-02T12:35:15;14.63;;;7.05;;
74223;SDS011;62585;49.706;18.216;2024-03-02T12:37:47;14.30;;;7.22;;
74223;SDS011;62585;49.706;18.216;2024-03-02T12:40:14;13.57;;;7.22;;
74223;SDS011;62585;49.706;18.216;2024-03-02T12:42:43;10.70;;;6.10;;
74223;SDS011;62585;49.706;18.216;2024-03-02T12:45:09;9.32;;;6.28;;
74223;SDS011;62585;49.706;18.216;2024-03-02T12:47:35;11.88;;;7.38;;
74223;SDS011;62585;49.706;18.216;2024-03-02T12:50:01;8.55;;;6.22;;
74223;SDS011;62585;49.706;18.216;2024-03-02T12:54:54;12.57;;;7.38;;
74223;SDS011;62585;49.706;18.216;2024-03-02T12:57:27;10.90;;;6.72;;
74223;SDS011;62585;49.706;18.216;2024-03-02T13:00:00;9.82;;;6.22;;
74223;SDS011;62585;49.706;18.216;2024-03-02T13:02:30;10.80;;;6.28;;
74223;SDS011;62585;49.706;18.216;2024-03-02T13:04:57;13.80;;;7.70;;
74223;SDS011;62585;49.706;18.216;2024-03-02T13:09:49;10.25;;;6.13;;
74223;SDS011;62585;49.706;18.216;2024-03-02T13:12:16;11.68;;;6.20;;
74223;SDS011;62585;49.706;18.216;2024-03-02T13:14:42;8.57;;;5.78;;
74223;SDS011;62585;49.706;18.216;2024-03-02T13:17:08;9.57;;;6.47;;
74223;SDS011;62585;49.706;18.216;2024-03-02T13:19:35;11.05;;;6.15;;
74223;SDS011;62585;49.706;18.216;2024-03-02T13:22:01;11.68;;;6.70;;
74223;SDS011;62585;49.706;18.216;2024-03-02T13:24:29;13.05;;;8.13;;
74223;SDS011;62585;49.706;18.216;2024-03-02T13:26:56;10.05;;;6.47;;
74223;SDS011;62585;49.706;18.216;2024-03-02T13:29:23;10.48;;;6.97;;
74223;SDS011;62585;49.706;18.216;2024-03-02T13:31:49;12.00;;;6.85;;
74223;SDS011;62585;49.706;18.216;2024-03-02T13:34:16;7.60;;;5.70;;
74223;SDS011;62585;49.706;18.216;2024-03-02T13:36:42;8.38;;;5.15;;
74223;SDS011;62585;49.706;18.216;2024-03-02T13:39:07;7.72;;;4.93;;
74223;SDS011;62585;49.706;18.216;2024-03-02T13:41:36;7.25;;;4.60;;
74223;SDS011;62585;49.706;18.216;2024-03-02T13:44:02;9.10;;;4.78;;
74223;SDS011;62585;49.706;18.216;2024-03-02T13:46:28;8.63;;;5.60;;
74223;SDS011;62585;49.706;18.216;2024-03-02T13:48:54;6.82;;;4.78;;
74223;SDS011;62585;49.706;18.216;2024-03-02T13:51:20;8.90;;;5.28;;
74223;SDS011;62585;49.706;18.216;2024-03-02T13:53:46;8.23;;;5.53;;
74223;SDS011;62585;49.706;18.216;2024-03-02T13:56:12;10.68;;;5.60;;
74223;SDS011;62585;49.706;18.216;2024-03-02T13:58:38;7.00;;;5.10;;
74223;SDS011;62585;49.706;18.216;2024-03-02T14:01:04;14.90;;;6.20;;
74223;SDS011;62585;49.706;18.216;2024-03-02T14:03:30;8.70;;;5.30;;
74223;SDS011;62585;49.706;18.216;2024-03-02T14:05:56;8.43;;;5.03;;
74223;SDS011;62585;49.706;18.216;2024-03-02T14:08:23;9.35;;;5.07;;
74223;SDS011;62585;49.706;18.216;2024-03-02T14:10:49;8.20;;;5.75;;
74223;SDS011;62585;49.706;18.216;2024-03-02T14:13:15;8.20;;;5.07;;
74223;SDS011;62585;49.706;18.216;2024-03-02T14:15:41;10.10;;;6.95;;
74223;SDS011;62585;49.706;18.216;2024-03-02T14:18:07;10.85;;;6.13;;
74223;SDS011;62585;49.706;18.216;2024-03-02T14:20:36;9.77;;;6.65;;
74223;SDS011;62585;49.706;18.216;2024-03-02T14:23:03;10.10;;;6.57;;
74223;SDS011;62585;49.706;18.216;2024-03-02T14:25:29;10.95;;;6.57;;
74223;SDS011;62585;49.706;18.216;2024-03-02T14:27:59;9.38;;;6.10;;
74223;SDS011;62585;49.706;18.216;2024-03-02T14:30:25;9.57;;;6.20;;
74223;SDS011;62585;49.706;18.216;2024-03-02T14:32:51;9.65;;;5.30;;
74223;SDS011;62585;49.706;18.216;2024-03-02T14:35:17;8.10;;;5.50;;
74223;SDS011;62585;49.706;18.216;2024-03-02T14:37:43;10.00;;;6.13;;